This is the latest recevied weather packets stored in our database for station/object W8UFO-13. If no packets are shown the sender has not sent any weather packets the latest 1 day(s).
| Time | Temp. | Humidity | Pressure | Rain* | Wind** | Luminosity | Snow |
|---|---|---|---|---|---|---|---|
| 1778039058 | 21.67° C | 53% | 1013 hPa | 0 mm | - | - | - |
| 1778038756 | 21.67° C | 54% | 1013.1 hPa | 0 mm | - | - | - |
| 1778038457 | 21.11° C | 54% | 1013 hPa | 0 mm | - | - | - |
| 1778037857 | 21.11° C | 54% | 1013 hPa | 0 mm | - | - | - |
| 1778037557 | 21.11° C | 55% | 1012.9 hPa | 0 mm | - | - | - |
| 1778037257 | 21.11° C | 54% | 1012.9 hPa | 0 mm | - | - | - |
| 1778035457 | 21.11° C | 53% | 1012.8 hPa | 0 mm | - | - | - |
| 1778035157 | 21.67° C | 53% | 1012.9 hPa | 0 mm | - | - | - |
| 1778034257 | 21.67° C | 52% | 1012.8 hPa | 0 mm | - | - | - |
| 1778033658 | 21.67° C | 52% | 1013 hPa | 0 mm | - | - | - |
| 1778033357 | 21.67° C | 52% | 1012.8 hPa | 0 mm | - | - | - |
| 1778033057 | 21.67° C | 53% | 1012.8 hPa | 0 mm | - | - | - |
| 1778032758 | 21.67° C | 52% | 1012.7 hPa | 0 mm | - | - | - |
| 1778032457 | 21.67° C | 52% | 1012.6 hPa | 0 mm | - | - | - |
| 1778031857 | 21.67° C | 51% | 1012.5 hPa | 0 mm | - | - | - |
| 1778030657 | 22.22° C | 50% | 1012.1 hPa | 0 mm | - | - | - |
| 1778030057 | 22.22° C | 49% | 1011.9 hPa | 0 mm | - | - | - |
| 1778029757 | 22.22° C | 49% | 1011.8 hPa | 0 mm | - | - | - |
| 1778029457 | 22.22° C | 49% | 1011.8 hPa | 0 mm | - | - | - |
| 1778027357 | 22.78° C | 48% | 1012.2 hPa | 0 mm | - | - | - |
| 1778027057 | 22.78° C | 48% | 1012.3 hPa | 0 mm | - | - | - |
| 1778022557 | 23.89° C | 53% | 1011.7 hPa | 0 mm | - | - | - |
| 1778021957 | 24.44° C | 51% | 1012 hPa | 0 mm | - | - | - |
| 1778021357 | 25° C | 51% | 1012 hPa | 0 mm | - | - | - |
| 1778015061 | 26.11° C | 45% | 1012.9 hPa | 0 mm | - | - | - |
* Rain latest hour (hover to see other rain measurements)
** Current wind speed in m/s (hover to see current wind gust speed)